Time;durP1;ratioP1;P1;durP2;ratioP2;P2;SDS_P1;SDS_P2;PMS_P1;PMS_P2;Temp;Humidity;BMP_temperature;BMP_pressure;BME280_temperature;BME280_humidity;BME280_pressure;Samples;Min_cycle;Max_cycle;Signal;HPM_P1;HPM_P2
2022/01/11 00:02:07;;;;;;;10.32;5.72;;;;;;;;;;8361503;28;20051;-65
2022/01/11 00:10:33;;;;;;;11.43;5.30;;;;;;;;;;8361769;28;20052;-65
2022/01/11 00:14:33;;;;;;;8.50;4.93;;;;;;;;;;8359008;28;20048;-65
2022/01/11 00:18:33;;;;;;;10.10;5.43;;;;;;;;;;8362093;28;20032;-65
2022/01/11 00:22:48;;;;;;;8.07;4.72;;;;;;;;;;8368244;28;20028;-65
2022/01/11 00:26:48;;;;;;;11.45;5.45;;;;;;;;;;8365934;28;20027;-65
2022/01/11 00:30:49;;;;;;;10.52;4.95;;;;;;;;;;8367550;28;20056;-65
2022/01/11 00:34:52;;;;;;;7.90;5.07;;;;;;;;;;8366255;28;20143;-65
2022/01/11 00:38:52;;;;;;;11.93;5.50;;;;;;;;;;8365719;28;20025;-65
2022/01/11 00:42:52;;;;;;;10.27;5.18;;;;;;;;;;8367249;28;20590;-65
2022/01/11 00:46:52;;;;;;;12.48;5.35;;;;;;;;;;8366678;28;20025;-65
2022/01/11 00:50:53;;;;;;;9.75;5.57;;;;;;;;;;8366146;28;20024;-65
2022/01/11 00:54:53;;;;;;;10.90;5.25;;;;;;;;;;8366291;28;20028;-65
2022/01/11 00:58:54;;;;;;;13.23;6.30;;;;;;;;;;8365278;28;20024;-65
2022/01/11 01:02:54;;;;;;;12.10;5.78;;;;;;;;;;8366418;28;20473;-65
2022/01/11 01:06:54;;;;;;;9.00;5.10;;;;;;;;;;8366776;28;20277;-65
2022/01/11 01:10:54;;;;;;;12.70;6.10;;;;;;;;;;8364953;28;20025;-65
2022/01/11 01:14:54;;;;;;;10.80;5.70;;;;;;;;;;8364588;28;20024;-65
2022/01/11 01:18:55;;;;;;;13.57;6.10;;;;;;;;;;8363118;28;21134;-65
2022/01/11 01:22:55;;;;;;;13.57;6.10;;;;;;;;;;8362903;28;20021;-65
2022/01/11 01:26:55;;;;;;;12.60;5.95;;;;;;;;;;8363332;28;20024;-65
2022/01/11 01:31:00;;;;;;;9.90;5.93;;;;;;;;;;8363972;28;20059;-65
2022/01/11 01:35:04;;;;;;;10.73;6.22;;;;;;;;;;8365818;28;20283;-65
2022/01/11 01:39:04;;;;;;;17.65;7.60;;;;;;;;;;8364435;28;20112;-65
2022/01/11 01:43:07;;;;;;;8.70;5.88;;;;;;;;;;8364793;28;20376;-65
2022/01/11 01:47:08;;;;;;;10.73;6.22;;;;;;;;;;8363671;28;20590;-65
2022/01/11 01:51:09;;;;;;;14.48;6.97;;;;;;;;;;8365141;28;20462;-65
2022/01/11 01:55:09;;;;;;;14.50;6.78;;;;;;;;;;8363945;28;20036;-65
2022/01/11 01:59:09;;;;;;;15.75;6.68;;;;;;;;;;8363384;28;20021;-64
2022/01/11 02:03:15;;;;;;;12.40;6.63;;;;;;;;;;8363978;28;20911;-64
2022/01/11 02:07:15;;;;;;;14.30;6.03;;;;;;;;;;8363797;28;20882;-64
2022/01/11 02:11:17;;;;;;;16.88;7.50;;;;;;;;;;8364174;28;20031;-65
2022/01/11 02:15:17;;;;;;;11.55;6.72;;;;;;;;;;8363647;28;20857;-65
2022/01/11 02:19:17;;;;;;;12.48;7.18;;;;;;;;;;8363234;28;20270;-64
2022/01/11 02:23:19;;;;;;;12.15;7.20;;;;;;;;;;8363942;28;20166;-64
2022/01/11 02:27:19;;;;;;;18.52;7.32;;;;;;;;;;8363044;28;20059;-65
2022/01/11 02:31:20;;;;;;;14.07;7.47;;;;;;;;;;8362945;28;20040;-64
2022/01/11 02:35:20;;;;;;;13.32;7.43;;;;;;;;;;8361932;28;20020;-65
2022/01/11 02:39:20;;;;;;;15.45;7.97;;;;;;;;;;8364234;28;20027;-65
2022/01/11 02:43:20;;;;;;;13.98;7.25;;;;;;;;;;8361456;28;20029;-65
2022/01/11 02:47:20;;;;;;;13.95;7.47;;;;;;;;;;8362774;28;20495;-65
2022/01/11 02:51:21;;;;;;;16.92;7.38;;;;;;;;;;8362444;28;20047;-65
2022/01/11 02:55:22;;;;;;;13.95;7.47;;;;;;;;;;8362527;28;20060;-65
2022/01/11 02:59:22;;;;;;;12.35;7.40;;;;;;;;;;8361264;28;20032;-65
2022/01/11 03:03:25;;;;;;;15.93;7.75;;;;;;;;;;8360965;28;20055;-65
2022/01/11 03:07:25;;;;;;;13.65;7.45;;;;;;;;;;8363243;28;20059;-65
2022/01/11 03:11:31;;;;;;;18.13;7.82;;;;;;;;;;8363638;28;20035;-65
2022/01/11 03:15:32;;;;;;;16.45;8.05;;;;;;;;;;8361026;28;20115;-65
2022/01/11 03:19:33;;;;;;;16.65;7.72;;;;;;;;;;8361161;28;20446;-65
2022/01/11 03:23:34;;;;;;;17.73;7.88;;;;;;;;;;8362080;28;20021;-65
2022/01/11 03:27:34;;;;;;;12.67;7.50;;;;;;;;;;8360257;28;20038;-65
2022/01/11 03:31:36;;;;;;;16.63;7.97;;;;;;;;;;8363072;28;20270;-64
2022/01/11 03:35:37;;;;;;;12.63;7.40;;;;;;;;;;8361645;28;20035;-65
2022/01/11 03:39:37;;;;;;;16.35;7.70;;;;;;;;;;8360258;28;20027;-65
2022/01/11 03:43:37;;;;;;;13.85;7.68;;;;;;;;;;8361925;28;20032;-65
2022/01/11 03:47:38;;;;;;;13.63;7.85;;;;;;;;;;8359974;28;20454;-65
2022/01/11 03:51:39;;;;;;;17.38;8.40;;;;;;;;;;8362147;28;20127;-65
2022/01/11 03:59:45;;;;;;;16.33;7.85;;;;;;;;;;8368527;28;20040;-65
2022/01/11 04:03:46;;;;;;;17.50;9.13;;;;;;;;;;8368214;28;20028;-64
2022/01/11 04:07:46;;;;;;;21.60;9.73;;;;;;;;;;8368588;28;20032;-65
2022/01/11 04:11:46;;;;;;;23.75;8.20;;;;;;;;;;8368837;28;20420;-65
2022/01/11 04:15:47;;;;;;;15.98;8.05;;;;;;;;;;8366549;28;20673;-65
2022/01/11 04:19:47;;;;;;;24.77;9.50;;;;;;;;;;8366613;28;20775;-65
2022/01/11 04:23:47;;;;;;;20.00;9.10;;;;;;;;;;8366762;28;20029;-65
2022/01/11 04:27:47;;;;;;;17.40;8.82;;;;;;;;;;8366469;28;20855;-65
2022/01/11 04:31:48;;;;;;;20.33;9.10;;;;;;;;;;8367147;28;20044;-65
2022/01/11 04:35:49;;;;;;;18.77;9.30;;;;;;;;;;8366297;28;20582;-65
2022/01/11 04:39:49;;;;;;;18.42;8.40;;;;;;;;;;8366373;28;20962;-65
2022/01/11 04:43:49;;;;;;;25.35;11.05;;;;;;;;;;8365079;28;20135;-65
2022/01/11 04:47:56;;;;;;;21.95;10.07;;;;;;;;;;8365181;28;20028;-65
2022/01/11 04:51:56;;;;;;;18.65;8.75;;;;;;;;;;8366200;28;20859;-65
2022/01/11 04:55:57;;;;;;;20.45;9.43;;;;;;;;;;8365276;28;20057;-65
2022/01/11 04:59:57;;;;;;;26.02;9.25;;;;;;;;;;8365947;28;20094;-65
2022/01/11 05:03:58;;;;;;;16.23;8.65;;;;;;;;;;8364939;28;20786;-65
2022/01/11 05:07:58;;;;;;;21.13;9.88;;;;;;;;;;8363692;28;20029;-65
2022/01/11 05:11:58;;;;;;;15.10;8.65;;;;;;;;;;8365994;28;20028;-65
2022/01/11 05:15:59;;;;;;;19.80;9.35;;;;;;;;;;8364129;28;20531;-65
2022/01/11 05:20:00;;;;;;;13.27;8.23;;;;;;;;;;8365257;28;20671;-65
2022/01/11 05:24:00;;;;;;;12.80;7.65;;;;;;;;;;8365736;28;20147;-65
2022/01/11 05:28:00;;;;;;;21.83;8.98;;;;;;;;;;8363319;28;20032;-65
2022/01/11 05:32:02;;;;;;;14.68;8.05;;;;;;;;;;8365440;28;20640;-65
2022/01/11 05:36:02;;;;;;;14.82;7.70;;;;;;;;;;8364704;28;20450;-65
2022/01/11 05:40:03;;;;;;;16.10;9.23;;;;;;;;;;8365158;28;20028;-65
2022/01/11 05:44:03;;;;;;;14.90;8.18;;;;;;;;;;8363999;28;20386;-65
2022/01/11 05:48:04;;;;;;;25.90;10.70;;;;;;;;;;8364826;28;20037;-65
2022/01/11 05:52:04;;;;;;;17.95;8.45;;;;;;;;;;8364552;28;20278;-65
2022/01/11 05:56:05;;;;;;;13.00;7.13;;;;;;;;;;8365166;28;20051;-65
2022/01/11 06:00:06;;;;;;;15.77;8.40;;;;;;;;;;8363672;28;20020;-65
2022/01/11 06:04:07;;;;;;;23.15;8.55;;;;;;;;;;8363032;28;20021;-65
2022/01/11 06:08:07;;;;;;;19.33;8.73;;;;;;;;;;8364695;28;20020;-65
2022/01/11 06:12:07;;;;;;;18.00;8.93;;;;;;;;;;8362897;28;20036;-65
2022/01/11 06:16:08;;;;;;;17.52;8.82;;;;;;;;;;8363569;28;20906;-65
2022/01/11 06:20:08;;;;;;;18.70;8.95;;;;;;;;;;8363160;28;20082;-65
2022/01/11 06:24:09;;;;;;;18.08;8.48;;;;;;;;;;8362759;28;20032;-65
2022/01/11 06:28:09;;;;;;;14.60;8.25;;;;;;;;;;8363201;28;20043;-65
2022/01/11 06:32:09;;;;;;;19.83;10.00;;;;;;;;;;8362011;28;20428;-65
2022/01/11 06:36:12;;;;;;;17.42;8.95;;;;;;;;;;8361819;28;20028;-65
2022/01/11 06:40:13;;;;;;;19.23;9.52;;;;;;;;;;8363827;28;20472;-65
2022/01/11 06:44:14;;;;;;;15.63;8.30;;;;;;;;;;8357453;28;20043;-66
2022/01/11 06:48:14;;;;;;;13.75;9.52;;;;;;;;;;8358297;28;20021;-65
2022/01/11 06:52:14;;;;;;;16.05;9.07;;;;;;;;;;8360512;28;20388;-65
2022/01/11 06:56:17;;;;;;;14.55;8.10;;;;;;;;;;8358052;28;20032;-66
2022/01/11 07:00:17;;;;;;;14.35;8.32;;;;;;;;;;8359648;28;20817;-65
2022/01/11 07:04:18;;;;;;;15.73;8.45;;;;;;;;;;8358512;28;20040;-65
2022/01/11 07:08:18;;;;;;;23.10;8.93;;;;;;;;;;8357582;28;20037;-65
2022/01/11 07:12:18;;;;;;;17.80;8.47;;;;;;;;;;8354230;28;20508;-65
2022/01/11 07:16:19;;;;;;;15.25;7.38;;;;;;;;;;8352925;28;20294;-65
2022/01/11 07:20:19;;;;;;;18.05;7.97;;;;;;;;;;8356906;28;20031;-65
2022/01/11 07:24:19;;;;;;;13.48;8.00;;;;;;;;;;8356107;28;20027;-65
2022/01/11 07:28:19;;;;;;;17.98;8.25;;;;;;;;;;8354735;28;20541;-65
2022/01/11 07:32:19;;;;;;;13.95;8.23;;;;;;;;;;8354737;28;20463;-65
2022/01/11 07:36:20;;;;;;;12.52;7.20;;;;;;;;;;8346727;28;20397;-65
2022/01/11 07:40:20;;;;;;;13.13;7.38;;;;;;;;;;8356913;28;20431;-65
2022/01/11 07:44:20;;;;;;;14.95;8.77;;;;;;;;;;8354861;28;20040;-65
2022/01/11 07:48:21;;;;;;;10.05;7.18;;;;;;;;;;8355034;28;20650;-65
2022/01/11 07:52:21;;;;;;;14.50;7.50;;;;;;;;;;8356046;28;20024;-66
2022/01/11 07:56:21;;;;;;;17.65;7.88;;;;;;;;;;8356135;28;20363;-66
2022/01/11 08:00:22;;;;;;;14.00;7.30;;;;;;;;;;8355603;28;20028;-65
2022/01/11 08:04:22;;;;;;;16.80;7.18;;;;;;;;;;8356313;28;20500;-65
2022/01/11 08:08:22;;;;;;;12.17;6.87;;;;;;;;;;8356751;28;20398;-65
2022/01/11 08:12:22;;;;;;;13.80;7.07;;;;;;;;;;8355973;28;20287;-65
2022/01/11 08:16:23;;;;;;;14.88;7.70;;;;;;;;;;8356698;28;20317;-65
2022/01/11 08:20:23;;;;;;;13.32;6.65;;;;;;;;;;8355892;28;20100;-65
2022/01/11 08:24:23;;;;;;;16.73;7.63;;;;;;;;;;8357224;28;20464;-65
2022/01/11 08:28:25;;;;;;;24.63;10.77;;;;;;;;;;8357062;28;20434;-65
2022/01/11 08:32:25;;;;;;;18.40;10.25;;;;;;;;;;8357257;28;20043;-65
2022/01/11 08:36:25;;;;;;;21.80;9.85;;;;;;;;;;8355594;28;20021;-65
2022/01/11 08:40:26;;;;;;;20.77;10.38;;;;;;;;;;8360055;28;20262;-65
2022/01/11 08:44:26;;;;;;;12.45;8.00;;;;;;;;;;8361890;28;20517;-65
2022/01/11 08:48:26;;;;;;;18.23;9.65;;;;;;;;;;8361549;28;20435;-65
2022/01/11 08:52:28;;;;;;;17.38;9.25;;;;;;;;;;8364172;28;20038;-65
2022/01/11 08:56:29;;;;;;;19.63;9.93;;;;;;;;;;8361967;28;20079;-66
2022/01/11 09:00:29;;;;;;;16.05;9.20;;;;;;;;;;8363472;28;20165;-66
2022/01/11 09:04:29;;;;;;;17.70;8.52;;;;;;;;;;8362305;28;20044;-66
2022/01/11 09:08:30;;;;;;;17.27;9.10;;;;;;;;;;8360995;28;20564;-65
2022/01/11 09:12:30;;;;;;;17.30;9.20;;;;;;;;;;8361520;28;20050;-65
2022/01/11 09:16:30;;;;;;;20.98;8.60;;;;;;;;;;8363147;28;20028;-65
2022/01/11 09:20:31;;;;;;;16.95;8.25;;;;;;;;;;8360241;28;20036;-66
2022/01/11 09:24:31;;;;;;;17.10;9.93;;;;;;;;;;8363299;28;20394;-66
2022/01/11 09:28:31;;;;;;;16.95;8.40;;;;;;;;;;8360471;28;20055;-66
2022/01/11 09:32:34;;;;;;;14.85;9.27;;;;;;;;;;8361664;28;20105;-66
2022/01/11 09:36:34;;;;;;;13.88;8.10;;;;;;;;;;8360594;28;20275;-66
2022/01/11 09:40:34;;;;;;;13.18;7.55;;;;;;;;;;8360747;28;20031;-66
2022/01/11 09:44:38;;;;;;;16.45;6.68;;;;;;;;;;8360322;28;20105;-66
2022/01/11 09:48:38;;;;;;;13.00;7.13;;;;;;;;;;8360525;28;20029;-66
2022/01/11 09:52:40;;;;;;;13.13;6.87;;;;;;;;;;8359352;28;20567;-66
2022/01/11 09:56:40;;;;;;;14.35;8.27;;;;;;;;;;8361268;28;20909;-66
2022/01/11 10:00:41;;;;;;;12.18;7.25;;;;;;;;;;8358592;28;20059;-67
2022/01/11 10:04:41;;;;;;;15.63;7.43;;;;;;;;;;8351632;28;20040;-66
2022/01/11 10:08:41;;;;;;;15.10;8.55;;;;;;;;;;8361250;28;20024;-66
2022/01/11 10:12:46;;;;;;;13.35;7.20;;;;;;;;;;8358331;28;20459;-66
2022/01/11 10:16:46;;;;;;;12.90;7.65;;;;;;;;;;8335906;28;274531;-66
2022/01/11 10:20:47;;;;;;;12.23;6.38;;;;;;;;;;8340173;28;20332;-66
2022/01/11 10:24:49;;;;;;;14.52;7.38;;;;;;;;;;8338784;28;20024;-66
2022/01/11 10:28:49;;;;;;;12.10;7.68;;;;;;;;;;8343558;28;20266;-66
2022/01/11 10:32:51;;;;;;;30.52;18.75;;;;;;;;;;8340825;28;20234;-66
2022/01/11 10:36:51;;;;;;;17.60;8.70;;;;;;;;;;8338526;28;20017;-66
2022/01/11 10:40:51;;;;;;;60.80;41.17;;;;;;;;;;8341142;28;20035;-66
2022/01/11 10:44:53;;;;;;;18.65;12.65;;;;;;;;;;8321110;27;20272;-67
2022/01/11 10:48:53;;;;;;;22.30;14.13;;;;;;;;;;8340101;28;20036;-66
2022/01/11 10:52:57;;;;;;;60.45;39.95;;;;;;;;;;8339736;28;20494;-67
2022/01/11 10:57:12;;;;;;;37.25;25.88;;;;;;;;;;8340087;28;20021;-66
2022/01/11 11:01:12;;;;;;;25.10;15.02;;;;;;;;;;8340383;28;20513;-66
2022/01/11 11:05:23;;;;;;;22.58;13.00;;;;;;;;;;8339970;28;20036;-67
2022/01/11 11:09:23;;;;;;;18.73;8.90;;;;;;;;;;8341291;28;20028;-66
2022/01/11 11:13:25;;;;;;;14.07;7.75;;;;;;;;;;8338063;28;20039;-66
2022/01/11 11:17:43;;;;;;;20.23;8.88;;;;;;;;;;8339312;28;20037;-66
2022/01/11 11:21:44;;;;;;;13.23;6.93;;;;;;;;;;8339699;28;20090;-66
2022/01/11 11:25:44;;;;;;;10.38;6.25;;;;;;;;;;8339987;28;20020;-67
2022/01/11 11:29:44;;;;;;;11.65;6.88;;;;;;;;;;8339545;28;20020;-66
2022/01/11 11:33:45;;;;;;;13.50;7.72;;;;;;;;;;8337825;28;20040;-67
2022/01/11 11:37:46;;;;;;;12.27;6.53;;;;;;;;;;8340989;28;20020;-66
2022/01/11 11:41:48;;;;;;;15.68;6.57;;;;;;;;;;8338775;28;20028;-67
2022/01/11 11:45:49;;;;;;;10.40;5.57;;;;;;;;;;8338268;28;20397;-67
2022/01/11 11:49:56;;;;;;;11.45;6.25;;;;;;;;;;8337897;28;20021;-67
2022/01/11 11:53:56;;;;;;;12.30;6.80;;;;;;;;;;8337863;28;20028;-66
2022/01/11 11:58:01;;;;;;;12.60;6.22;;;;;;;;;;8337045;28;20320;-67
2022/01/11 12:02:01;;;;;;;11.73;6.38;;;;;;;;;;8338884;28;20060;-67
2022/01/11 12:06:02;;;;;;;9.85;6.35;;;;;;;;;;8333102;28;20278;-66
2022/01/11 12:10:05;;;;;;;9.90;6.43;;;;;;;;;;8334842;28;20033;-66
2022/01/11 12:14:06;;;;;;;10.50;6.05;;;;;;;;;;8332808;28;20851;-67
2022/01/11 12:18:06;;;;;;;10.77;6.75;;;;;;;;;;8337275;28;20033;-67
2022/01/11 12:22:06;;;;;;;13.68;6.95;;;;;;;;;;8340512;28;20638;-67
2022/01/11 12:26:16;;;;;;;10.77;6.78;;;;;;;;;;8339809;28;20508;-67
2022/01/11 12:30:17;;;;;;;14.82;6.63;;;;;;;;;;8354013;28;20094;-67
2022/01/11 12:34:17;;;;;;;13.25;6.10;;;;;;;;;;8337232;28;20366;-67
2022/01/11 12:38:17;;;;;;;11.52;6.38;;;;;;;;;;8338250;28;20063;-67
2022/01/11 12:42:24;;;;;;;11.77;7.30;;;;;;;;;;8337980;28;20461;-67
2022/01/11 12:46:24;;;;;;;11.85;6.78;;;;;;;;;;8336539;28;20558;-67
2022/01/11 12:50:25;;;;;;;13.68;6.43;;;;;;;;;;8338643;28;20082;-67
2022/01/11 12:54:35;;;;;;;15.15;7.00;;;;;;;;;;8338684;28;20566;-65
2022/01/11 12:58:36;;;;;;;13.48;6.35;;;;;;;;;;8338462;28;20580;-65
2022/01/11 13:02:36;;;;;;;10.77;6.43;;;;;;;;;;8340158;28;20587;-65
2022/01/11 13:06:38;;;;;;;14.73;6.72;;;;;;;;;;8337983;28;20590;-65
2022/01/11 13:10:39;;;;;;;12.95;6.85;;;;;;;;;;8330967;28;20045;-65
2022/01/11 13:14:42;;;;;;;9.68;6.57;;;;;;;;;;8338355;28;20094;-65
2022/01/11 13:18:42;;;;;;;12.05;6.63;;;;;;;;;;8337781;28;20025;-65
2022/01/11 13:23:03;;;;;;;10.57;6.75;;;;;;;;;;8337521;28;20451;-65
2022/01/11 13:27:08;;;;;;;12.43;6.72;;;;;;;;;;8338117;28;20028;-65
2022/01/11 13:31:10;;;;;;;12.07;6.90;;;;;;;;;;8338921;28;20237;-65
2022/01/11 13:35:11;;;;;;;11.75;6.80;;;;;;;;;;8336325;28;20043;-65
2022/01/11 13:39:13;;;;;;;12.07;6.50;;;;;;;;;;8338328;28;20793;-65
2022/01/11 13:43:13;;;;;;;12.43;6.50;;;;;;;;;;8336367;28;20923;-65
2022/01/11 13:47:19;;;;;;;13.43;6.45;;;;;;;;;;8336859;28;20040;-65
2022/01/11 13:51:30;;;;;;;12.48;6.53;;;;;;;;;;8335421;28;20573;-66
2022/01/11 13:55:30;;;;;;;11.80;6.75;;;;;;;;;;8336480;28;20028;-67
2022/01/11 13:59:31;;;;;;;11.30;6.40;;;;;;;;;;8337245;28;20101;-66
2022/01/11 14:03:31;;;;;;;11.70;6.47;;;;;;;;;;8335011;28;20097;-67
2022/01/11 14:07:32;;;;;;;10.45;5.68;;;;;;;;;;8336502;28;20370;-67
2022/01/11 14:11:38;;;;;;;8.20;5.97;;;;;;;;;;8337104;28;20066;-67
2022/01/11 14:15:40;;;;;;;10.25;6.15;;;;;;;;;;8336775;28;20040;-67
2022/01/11 14:19:47;;;;;;;9.15;5.72;;;;;;;;;;8335287;28;20131;-66
2022/01/11 14:23:52;;;;;;;10.73;6.07;;;;;;;;;;8328214;28;20119;-66
2022/01/11 14:27:56;;;;;;;8.68;6.10;;;;;;;;;;8336965;28;20366;-66
2022/01/11 14:32:07;;;;;;;12.38;6.63;;;;;;;;;;8334945;28;20032;-66
2022/01/11 14:36:10;;;;;;;12.25;6.43;;;;;;;;;;8334341;28;20155;-66
2022/01/11 14:40:20;;;;;;;11.25;6.53;;;;;;;;;;8335256;28;20032;-66
2022/01/11 14:44:24;;;;;;;8.80;5.57;;;;;;;;;;8334542;28;20098;-66
2022/01/11 14:48:25;;;;;;;;;;;;;;;;;;8335353;28;20037;-66
2022/01/11 14:52:25;;;;;;;8.45;5.93;;;;;;;;;;8337581;28;19916;-66
2022/01/11 14:56:29;;;;;;;13.80;6.80;;;;;;;;;;8335521;28;20363;-66
2022/01/11 15:00:30;;;;;;;;;;;;;;;;;;8335962;28;20491;-66
2022/01/11 15:04:36;;;;;;;10.45;6.00;;;;;;;;;;8334756;28;19943;-66
2022/01/11 15:08:38;;;;;;;11.70;5.68;;;;;;;;;;8336363;28;20032;-66
2022/01/11 15:12:40;;;;;;;10.38;6.35;;;;;;;;;;8334421;28;20111;-66
2022/01/11 15:16:41;;;;;;;11.50;6.75;;;;;;;;;;8336695;28;20055;-66
2022/01/11 15:20:41;;;;;;;12.75;6.82;;;;;;;;;;8336156;28;20032;-66
2022/01/11 15:24:42;;;;;;;13.40;8.23;;;;;;;;;;8335136;28;20359;-66
2022/01/11 15:28:42;;;;;;;12.35;7.28;;;;;;;;;;8334646;28;20021;-66
2022/01/11 15:32:42;;;;;;;12.45;8.02;;;;;;;;;;8333755;28;20363;-66
2022/01/11 15:36:44;;;;;;;13.30;7.32;;;;;;;;;;8333574;28;20071;-66
2022/01/11 15:40:45;;;;;;;13.05;6.90;;;;;;;;;;8335728;28;20020;-66
2022/01/11 15:44:47;;;;;;;13.60;6.55;;;;;;;;;;8331879;28;20025;-66
2022/01/11 15:48:50;;;;;;;11.18;7.07;;;;;;;;;;8333314;28;20043;-66
2022/01/11 15:52:50;;;;;;;10.63;6.93;;;;;;;;;;8335546;28;20297;-67
2022/01/11 15:56:51;;;;;;;10.43;6.82;;;;;;;;;;8335570;28;20068;-66
2022/01/11 16:00:52;;;;;;;10.80;6.80;;;;;;;;;;8333507;28;20033;-66
2022/01/11 16:04:52;;;;;;;11.85;6.78;;;;;;;;;;8332714;28;20359;-66
2022/01/11 16:08:52;;;;;;;13.80;6.60;;;;;;;;;;8333617;28;20336;-66
2022/01/11 16:12:52;;;;;;;15.40;6.90;;;;;;;;;;8333723;28;20076;-66
2022/01/11 16:16:53;;;;;;;10.07;5.85;;;;;;;;;;8332808;28;20523;-66
2022/01/11 16:20:53;;;;;;;14.13;6.20;;;;;;;;;;8332912;28;20453;-66
2022/01/11 16:24:53;;;;;;;9.40;6.43;;;;;;;;;;8334083;28;20031;-66
2022/01/11 16:28:57;;;;;;;8.70;5.55;;;;;;;;;;8329658;28;20029;-66
2022/01/11 16:32:58;;;;;;;6.97;5.40;;;;;;;;;;8333347;28;20317;-66
2022/01/11 16:36:58;;;;;;;12.18;6.53;;;;;;;;;;8332436;28;20151;-66
2022/01/11 16:44:59;;;;;;;12.35;6.18;;;;;;;;;;8332865;28;20442;-66
2022/01/11 16:48:59;;;;;;;8.68;6.03;;;;;;;;;;8332406;28;20033;-66
2022/01/11 16:52:59;;;;;;;12.30;7.13;;;;;;;;;;8332594;28;20424;-66
2022/01/11 16:57:00;;;;;;;9.48;6.45;;;;;;;;;;8331892;28;20043;-67
2022/01/11 17:01:00;;;;;;;9.93;6.72;;;;;;;;;;8333511;28;20554;-66
2022/01/11 17:05:00;;;;;;;10.82;6.43;;;;;;;;;;8337403;28;20274;-66
2022/01/11 17:09:01;;;;;;;14.10;6.53;;;;;;;;;;8339952;28;20547;-67
2022/01/11 17:13:01;;;;;;;10.98;6.90;;;;;;;;;;8336954;28;20036;-66
2022/01/11 17:17:02;;;;;;;12.38;7.15;;;;;;;;;;8339294;28;20083;-66
2022/01/11 17:21:02;;;;;;;10.82;6.88;;;;;;;;;;8336539;28;20139;-66
2022/01/11 17:25:05;;;;;;;10.32;6.72;;;;;;;;;;8336899;28;20097;-66
2022/01/11 17:29:07;;;;;;;11.98;7.28;;;;;;;;;;8345206;28;20072;-66
2022/01/11 17:33:08;;;;;;;13.88;6.97;;;;;;;;;;8336140;28;20068;-66
2022/01/11 17:37:08;;;;;;;10.55;6.68;;;;;;;;;;8339231;28;20104;-66
2022/01/11 17:41:09;;;;;;;11.68;5.93;;;;;;;;;;8336398;28;20060;-66
2022/01/11 17:45:10;;;;;;;8.25;5.72;;;;;;;;;;8333942;28;20437;-67
2022/01/11 17:49:11;;;;;;;10.35;6.10;;;;;;;;;;8335043;28;20078;-66
2022/01/11 17:53:11;;;;;;;7.70;5.45;;;;;;;;;;8336005;28;20686;-66
2022/01/11 17:57:13;;;;;;;7.33;5.27;;;;;;;;;;8337367;28;20065;-66
2022/01/11 18:01:13;;;;;;;9.60;5.30;;;;;;;;;;8337688;28;20267;-66
2022/01/11 18:05:13;;;;;;;9.23;4.82;;;;;;;;;;8333377;28;20105;-67
2022/01/11 18:09:14;;;;;;;6.00;4.37;;;;;;;;;;8337735;28;20321;-66
2022/01/11 18:13:14;;;;;;;7.97;5.10;;;;;;;;;;8333935;28;20680;-66
2022/01/11 18:17:15;;;;;;;8.52;5.47;;;;;;;;;;8335669;28;20041;-66
2022/01/11 18:21:17;;;;;;;8.98;5.68;;;;;;;;;;8335815;28;20089;-66
2022/01/11 18:25:18;;;;;;;9.77;5.38;;;;;;;;;;8336178;28;20079;-67
2022/01/11 18:29:19;;;;;;;9.52;6.05;;;;;;;;;;8333542;28;20021;-66
2022/01/11 18:33:19;;;;;;;8.93;5.90;;;;;;;;;;8333034;28;20033;-66
2022/01/11 18:37:20;;;;;;;10.00;5.78;;;;;;;;;;8336580;28;20425;-66
2022/01/11 18:41:20;;;;;;;9.38;5.63;;;;;;;;;;8337265;28;20147;-66
2022/01/11 18:45:20;;;;;;;9.23;5.97;;;;;;;;;;8334518;28;20662;-67
2022/01/11 18:49:21;;;;;;;7.70;5.38;;;;;;;;;;8335679;28;20589;-66
2022/01/11 18:53:21;;;;;;;7.75;5.43;;;;;;;;;;8334220;28;20449;-66
2022/01/11 18:57:21;;;;;;;6.57;4.97;;;;;;;;;;8334643;28;20017;-66
2022/01/11 19:01:22;;;;;;;6.80;4.93;;;;;;;;;;8334335;28;20548;-66
2022/01/11 19:05:23;;;;;;;8.75;4.50;;;;;;;;;;8335724;28;20024;-66
2022/01/11 19:09:28;;;;;;;6.80;4.00;;;;;;;;;;8336414;28;20036;-66
2022/01/11 19:13:29;;;;;;;4.60;3.47;;;;;;;;;;8332478;28;20028;-66
2022/01/11 19:17:29;;;;;;;5.97;4.00;;;;;;;;;;8332776;28;20040;-66
2022/01/11 19:21:29;;;;;;;3.40;2.90;;;;;;;;;;8335555;28;20328;-66
2022/01/11 19:25:29;;;;;;;5.53;4.10;;;;;;;;;;8332289;28;20025;-66
2022/01/11 19:29:30;;;;;;;5.40;3.80;;;;;;;;;;8334897;28;20038;-66
2022/01/11 19:33:30;;;;;;;4.78;3.40;;;;;;;;;;8331278;28;20041;-66
2022/01/11 19:37:30;;;;;;;7.07;4.40;;;;;;;;;;8332885;28;20082;-66
2022/01/11 19:41:31;;;;;;;6.20;4.90;;;;;;;;;;8333405;28;20025;-66
2022/01/11 19:45:31;;;;;;;6.60;5.07;;;;;;;;;;8332178;28;20123;-66
2022/01/11 19:49:32;;;;;;;9.10;5.43;;;;;;;;;;8332081;28;20431;-66
2022/01/11 19:53:32;;;;;;;7.72;5.47;;;;;;;;;;8331507;28;20518;-66
2022/01/11 19:57:33;;;;;;;12.15;5.95;;;;;;;;;;8333377;28;20025;-66
2022/01/11 20:01:36;;;;;;;8.90;5.78;;;;;;;;;;8332910;28;20887;-66
2022/01/11 20:05:36;;;;;;;9.07;5.68;;;;;;;;;;8331279;28;20119;-67
2022/01/11 20:09:37;;;;;;;8.95;5.93;;;;;;;;;;8331938;28;20717;-66
2022/01/11 20:13:37;;;;;;;7.47;5.47;;;;;;;;;;8333068;28;20033;-66
2022/01/11 20:17:37;;;;;;;8.43;5.28;;;;;;;;;;8331026;28;20262;-66
2022/01/11 20:30:16;;;;;;;9.02;5.15;;;;;;;;;;8331856;28;20314;-66
2022/01/11 20:34:16;;;;;;;7.80;4.82;;;;;;;;;;8330666;28;20029;-66
2022/01/11 20:38:16;;;;;;;5.72;4.10;;;;;;;;;;8337892;28;20051;-66
2022/01/11 20:42:18;;;;;;;7.07;4.68;;;;;;;;;;8335546;28;20763;-66
2022/01/11 20:46:19;;;;;;;7.07;4.40;;;;;;;;;;8339884;28;20037;-66
2022/01/11 20:54:19;;;;;;;5.25;3.60;;;;;;;;;;8337742;28;20063;-67
2022/01/11 20:58:20;;;;;;;6.35;4.03;;;;;;;;;;8338596;28;20025;-66
2022/01/11 21:02:20;;;;;;;4.30;3.22;;;;;;;;;;8337405;28;20509;-66
2022/01/11 21:06:20;;;;;;;4.60;3.50;;;;;;;;;;8338939;28;20091;-66
2022/01/11 21:10:21;;;;;;;5.07;3.70;;;;;;;;;;8339026;28;20421;-66
2022/01/11 21:14:21;;;;;;;5.68;3.63;;;;;;;;;;8335411;28;20024;-66
2022/01/11 21:22:42;;;;;;;3.40;2.75;;;;;;;;;;8338795;28;20024;-66
2022/01/11 21:26:42;;;;;;;3.90;3.13;;;;;;;;;;8338328;28;20059;-66
2022/01/11 21:30:43;;;;;;;3.38;3.03;;;;;;;;;;8336698;28;20241;-66
2022/01/11 21:34:43;;;;;;;3.92;3.30;;;;;;;;;;8335219;28;20037;-66
2022/01/11 21:38:43;;;;;;;3.92;3.08;;;;;;;;;;8337665;28;20046;-66
2022/01/11 21:42:44;;;;;;;3.65;3.10;;;;;;;;;;8337844;28;20174;-66
2022/01/11 21:46:44;;;;;;;6.18;3.20;;;;;;;;;;8336400;28;20267;-66
2022/01/11 21:50:44;;;;;;;4.85;3.33;;;;;;;;;;8336645;28;20094;-66
2022/01/11 21:54:50;;;;;;;4.38;3.33;;;;;;;;;;8335110;28;20024;-66
2022/01/11 21:58:50;;;;;;;5.15;3.55;;;;;;;;;;8337463;28;20017;-66
2022/01/11 22:02:51;;;;;;;4.57;2.92;;;;;;;;;;8336465;28;20797;-66
2022/01/11 22:06:51;;;;;;;3.88;3.15;;;;;;;;;;8335135;28;20517;-66
2022/01/11 22:10:51;;;;;;;3.85;3.10;;;;;;;;;;8336779;28;20032;-66
2022/01/11 22:18:51;;;;;;;4.70;3.20;;;;;;;;;;8334216;28;20221;-66
2022/01/11 22:22:52;;;;;;;3.45;3.13;;;;;;;;;;8335170;28;20498;-65
2022/01/11 22:26:52;;;;;;;3.65;3.05;;;;;;;;;;8338488;28;20025;-66
2022/01/11 22:30:53;;;;;;;3.15;2.67;;;;;;;;;;8339455;28;20457;-66
2022/01/11 22:34:53;;;;;;;3.58;2.80;;;;;;;;;;8337878;28;20503;-66
2022/01/11 22:38:53;;;;;;;2.93;2.60;;;;;;;;;;8339218;28;20069;-66
2022/01/11 22:42:53;;;;;;;4.50;2.90;;;;;;;;;;8337369;28;20604;-66
2022/01/11 22:46:54;;;;;;;3.30;2.72;;;;;;;;;;8338770;28;20115;-66
2022/01/11 22:50:54;;;;;;;3.78;2.30;;;;;;;;;;8339634;28;20097;-66
2022/01/11 22:54:54;;;;;;;2.42;2.22;;;;;;;;;;8338952;28;20462;-66
2022/01/11 22:58:54;;;;;;;4.07;2.67;;;;;;;;;;8338920;28;20095;-66
2022/01/11 23:02:55;;;;;;;3.88;2.65;;;;;;;;;;8339199;28;20046;-66
2022/01/11 23:06:56;;;;;;;3.08;2.65;;;;;;;;;;8337986;28;20168;-66
2022/01/11 23:10:59;;;;;;;5.75;3.10;;;;;;;;;;8338031;28;20025;-66
2022/01/11 23:14:59;;;;;;;3.38;3.00;;;;;;;;;;8337692;28;20017;-67
2022/01/11 23:19:01;;;;;;;3.92;2.97;;;;;;;;;;8339299;28;20032;-66
2022/01/11 23:23:02;;;;;;;4.45;3.00;;;;;;;;;;8353452;28;20048;-65
2022/01/11 23:27:02;;;;;;;4.63;3.05;;;;;;;;;;8337495;28;20111;-66
2022/01/11 23:31:04;;;;;;;3.42;2.75;;;;;;;;;;8337533;28;20174;-66
2022/01/11 23:35:07;;;;;;;3.33;2.78;;;;;;;;;;8335982;28;20543;-66
2022/01/11 23:43:35;;;;;;;4.22;2.65;;;;;;;;;;8336742;28;20074;-66
2022/01/11 23:47:36;;;;;;;3.53;2.90;;;;;;;;;;8337005;28;20028;-66
2022/01/11 23:51:36;;;;;;;3.35;3.05;;;;;;;;;;8338403;28;20013;-66
2022/01/11 23:55:36;;;;;;;3.20;2.90;;;;;;;;;;8337821;28;20469;-66
2022/01/11 23:59:36;;;;;;;3.70;3.30;;;;;;;;;;8335914;28;20466;-66
